Time;durP1;ratioP1;P1;durP2;ratioP2;P2;SDS_P1;SDS_P2;PMS_P1;PMS_P2;Temp;Humidity;BMP_temperature;BMP_pressure;BME280_temperature;BME280_humidity;BME280_pressure;Samples;Min_cycle;Max_cycle;Signal;HPM_P1;HPM_P2
2022/08/02 00:01:36;;;;;;;4.40;3.60;;;;;;;21.24;65.36;100276.15;105804;1273;22578;-73
2022/08/02 00:04:03;;;;;;;8.40;4.60;;;;;;;21.23;65.70;100273.91;106016;1273;22545;-73
2022/08/02 00:06:31;;;;;;;4.80;3.50;;;;;;;21.19;65.29;100277.70;105939;1277;22617;-71
2022/08/02 00:08:58;;;;;;;5.10;3.40;;;;;;;21.18;65.19;100280.64;105899;1277;26498;-69
2022/08/02 00:11:25;;;;;;;4.60;3.90;;;;;;;21.16;65.26;100283.76;105414;1278;22744;-70
2022/08/02 00:13:52;;;;;;;5.00;4.00;;;;;;;21.13;65.37;100285.19;105419;1278;22547;-71
2022/08/02 00:16:19;;;;;;;6.20;3.90;;;;;;;21.11;65.20;100281.52;105373;1277;22573;-71
2022/08/02 00:19:03;;;;;;;5.00;3.50;;;;;;;21.10;65.20;100278.38;105516;1277;23922;-70
2022/08/02 00:21:30;;;;;;;3.90;3.40;;;;;;;21.10;65.38;100280.84;105500;1277;22722;-69
2022/08/02 00:23:57;;;;;;;6.30;3.70;;;;;;;21.10;65.41;100278.89;105685;1277;22549;-71
2022/08/02 00:26:43;;;;;;;6.00;3.90;;;;;;;21.10;65.48;100287.48;105790;1277;22725;-73
2022/08/02 00:29:10;;;;;;;8.10;4.00;;;;;;;21.08;65.67;100287.63;105816;1277;22991;-70
2022/08/02 00:31:37;;;;;;;5.50;3.60;;;;;;;21.05;65.78;100285.63;105597;1273;23964;-69
2022/08/02 00:34:04;;;;;;;4.40;3.50;;;;;;;21.01;65.74;100287.45;105695;1274;25343;-70
2022/08/02 00:36:51;;;;;;;4.20;3.70;;;;;;;21.00;65.95;100288.18;105812;1273;22745;-72
2022/08/02 00:39:19;;;;;;;4.60;4.10;;;;;;;20.98;66.13;100284.39;105667;1273;22528;-70
2022/08/02 00:42:02;;;;;;;4.40;3.70;;;;;;;20.95;66.28;100288.11;105810;1273;22532;-71
2022/08/02 00:44:29;;;;;;;4.80;3.70;;;;;;;20.94;66.39;100285.88;105619;1278;25250;-72
2022/08/02 00:46:55;;;;;;;6.50;4.30;;;;;;;20.93;66.46;100284.29;105553;1277;22565;-71
2022/08/02 00:49:22;;;;;;;4.50;4.00;;;;;;;20.93;66.41;100278.73;105488;1278;24321;-71
2022/08/02 00:51:50;;;;;;;4.20;3.60;;;;;;;20.92;66.42;100280.40;105560;1276;25244;-79
2022/08/02 00:54:18;;;;;;;5.50;3.30;;;;;;;20.95;66.55;100285.10;105469;1277;25255;-69
2022/08/02 00:56:45;;;;;;;4.70;4.00;;;;;;;20.94;66.74;100287.81;105424;1277;22541;-69
2022/08/02 00:59:17;;;;;;;7.70;4.30;;;;;;;20.89;66.87;100292.49;105549;1277;22558;-69
2022/08/02 01:01:44;;;;;;;8.90;4.30;;;;;;;20.86;66.71;100295.37;105644;1277;24473;-68
2022/08/02 01:04:25;;;;;;;5.00;4.10;;;;;;;20.81;66.93;100293.49;105898;1273;25306;-70
2022/08/02 01:07:02;;;;;;;6.00;4.30;;;;;;;20.75;66.99;100292.56;105752;1275;26737;-71
2022/08/02 01:09:42;;;;;;;6.20;3.80;;;;;;;20.73;67.21;100298.40;105878;1273;25350;-71
2022/08/02 01:12:10;;;;;;;4.90;3.40;;;;;;;20.72;67.34;100298.42;105966;1273;25542;-72
2022/08/02 01:14:41;;;;;;;5.50;4.00;;;;;;;20.74;67.54;100301.71;105913;1276;22758;-73
2022/08/02 01:17:17;;;;;;;5.90;4.60;;;;;;;20.72;67.51;100303.64;106440;1273;22552;-71
2022/08/02 01:20:03;;;;;;;5.60;4.00;;;;;;;20.69;67.31;100306.29;106526;1273;25336;-71
2022/08/02 01:22:49;;;;;;;;;;;;;;;20.65;67.05;100304.85;106012;1274;25284;-72
2022/08/02 01:25:59;;;;;;;4.70;4.10;;;;;;;20.62;66.61;100303.98;106675;1273;22541;-70
2022/08/02 01:28:49;;;;;;;5.50;4.10;;;;;;;20.61;66.85;100301.71;106557;1273;23850;-69
2022/08/02 01:31:43;;;;;;;6.40;4.40;;;;;;;20.60;67.08;100295.32;106209;1278;23874;-71
2022/08/02 01:34:15;;;;;;;5.00;3.90;;;;;;;20.57;66.73;100298.71;105988;1279;22669;-67
2022/08/02 01:36:48;;;;;;;4.90;3.90;;;;;;;20.57;66.62;100297.08;105822;1279;24384;-71
2022/08/02 01:39:20;;;;;;;6.40;4.30;;;;;;;20.59;66.84;100297.85;106097;1277;25259;-70
2022/08/02 01:42:00;;;;;;;6.60;4.20;;;;;;;20.63;66.99;100299.79;105310;1282;23876;-70
2022/08/02 01:44:30;;;;;;;5.80;4.40;;;;;;;20.63;67.05;100290.69;105216;1282;24793;-70
2022/08/02 01:47:03;;;;;;;5.60;4.40;;;;;;;20.62;66.99;100294.85;105406;1282;26855;-73
2022/08/02 01:49:33;;;;;;;6.30;4.30;;;;;;;20.60;67.30;100296.01;105488;1277;22709;-73
2022/08/02 01:52:21;;;;;;;5.30;4.30;;;;;;;20.61;67.30;100300.28;105581;1278;23980;-71
2022/08/02 01:55:10;;;;;;;7.00;4.90;;;;;;;20.60;67.41;100300.52;105646;1277;25316;-72
2022/08/02 01:57:48;;;;;;;7.50;4.80;;;;;;;20.56;67.60;100298.02;105567;1277;22535;-70
2022/08/02 02:00:17;;;;;;;8.10;4.90;;;;;;;20.55;67.60;100298.42;105706;1273;22570;-69
2022/08/02 02:02:46;;;;;;;7.50;4.60;;;;;;;20.56;67.57;100302.52;106055;1273;25455;-70
2022/08/02 02:05:18;;;;;;;6.90;4.80;;;;;;;20.55;67.46;100302.38;106047;1273;22705;-72
2022/08/02 02:07:50;;;;;;;6.90;4.90;;;;;;;20.56;67.50;100304.31;105934;1273;24412;-70
2022/08/02 02:10:25;;;;;;;10.50;4.90;;;;;;;20.55;67.70;100307.73;105773;1273;25242;-69
2022/08/02 02:12:53;;;;;;;6.20;5.40;;;;;;;20.54;67.77;100310.46;105805;1273;22541;-69
2022/08/02 02:15:23;;;;;;;7.40;5.60;;;;;;;20.51;67.63;100310.97;105947;1274;23449;-71
2022/08/02 02:17:51;;;;;;;6.40;5.20;;;;;;;20.48;67.63;100310.42;105903;1273;24266;-71
2022/08/02 02:20:39;;;;;;;7.00;5.10;;;;;;;20.44;67.73;100307.40;105848;1273;22550;-70
2022/08/02 02:23:06;;;;;;;5.30;4.50;;;;;;;20.42;67.83;100309.48;105860;1273;25114;-71
2022/08/02 02:25:35;;;;;;;5.90;5.00;;;;;;;20.38;67.98;100308.95;105877;1273;22624;-71
2022/08/02 02:28:18;;;;;;;7.00;5.40;;;;;;;20.38;68.16;100309.67;105887;1273;25251;-72
2022/08/02 02:30:48;;;;;;;7.80;5.50;;;;;;;20.37;67.89;100311.19;106019;1273;25255;-71
2022/08/02 02:33:21;;;;;;;7.00;5.60;;;;;;;20.35;67.86;100315.92;105870;1273;24272;-71
2022/08/02 02:35:57;;;;;;;8.80;5.90;;;;;;;20.31;67.65;100312.55;105836;1273;24420;-71
2022/08/02 02:38:27;;;;;;;8.00;5.90;;;;;;;20.30;67.55;100315.81;105828;1273;23082;-68
2022/08/02 02:40:57;;;;;;;10.10;5.50;;;;;;;20.26;67.63;100315.29;105523;1278;22654;-69
2022/08/02 02:43:27;;;;;;;9.60;5.70;;;;;;;20.22;67.58;100315.67;104956;1278;25421;-73
2022/08/02 02:45:56;;;;;;;7.60;5.30;;;;;;;20.19;67.92;100315.30;105538;1278;22604;-72
2022/08/02 02:48:25;;;;;;;6.20;5.10;;;;;;;20.14;68.06;100319.27;105634;1278;22541;-72
2022/08/02 02:50:53;;;;;;;5.40;4.90;;;;;;;20.11;68.35;100320.19;105568;1277;25346;-72
2022/08/02 02:53:22;;;;;;;7.90;5.10;;;;;;;20.08;68.41;100321.75;105065;1282;22559;-71
2022/08/02 02:55:50;;;;;;;9.40;5.60;;;;;;;20.06;68.66;100323.08;104753;1288;22652;-71
2022/08/02 02:58:30;;;;;;;7.80;6.20;;;;;;;20.04;68.76;100323.14;104474;1287;24272;-72
2022/08/02 03:03:44;;;;;;;6.70;6.10;;;;;;;19.98;68.79;100315.40;104602;1287;22880;-71
2022/08/02 03:06:11;;;;;;;8.90;5.90;;;;;;;19.94;69.00;100312.22;104662;1288;22547;-69
2022/08/02 03:08:42;;;;;;;8.50;5.20;;;;;;;19.89;69.03;100314.25;104550;1287;25283;-72
2022/08/02 03:11:09;;;;;;;7.80;5.00;;;;;;;19.85;69.26;100312.99;104555;1285;22544;-71
2022/08/02 03:13:37;;;;;;;7.70;4.90;;;;;;;19.84;69.30;100311.81;104872;1279;23317;-70
2022/08/02 03:16:06;;;;;;;6.20;5.30;;;;;;;19.81;69.53;100309.77;105614;1273;23102;-76
2022/08/02 03:18:36;;;;;;;7.70;5.50;;;;;;;19.80;69.82;100304.65;105850;1273;22616;-71
2022/08/02 03:21:06;;;;;;;7.60;6.10;;;;;;;19.78;69.89;100305.82;105897;1273;25252;-81
2022/08/02 03:23:33;;;;;;;6.60;5.70;;;;;;;19.74;70.00;100304.05;105920;1273;25074;-68
2022/08/02 03:26:00;;;;;;;7.60;5.50;;;;;;;19.74;70.14;100310.66;105824;1273;25239;-69
2022/08/02 03:28:28;;;;;;;6.60;6.00;;;;;;;19.71;70.17;100311.16;105930;1273;22572;-70
2022/08/02 03:30:55;;;;;;;6.90;5.50;;;;;;;19.68;70.42;100311.65;105940;1273;22882;-73
2022/08/02 03:33:24;;;;;;;7.90;5.80;;;;;;;19.68;70.54;100310.96;105958;1273;25241;-73
2022/08/02 03:35:54;;;;;;;8.20;6.10;;;;;;;19.70;70.66;100313.55;105614;1278;22573;-71
2022/08/02 03:38:23;;;;;;;8.70;6.50;;;;;;;19.70;70.84;100315.70;105528;1278;22598;-71
2022/08/02 03:40:56;;;;;;;7.10;6.40;;;;;;;19.68;70.91;100319.70;105533;1278;25614;-72
2022/08/02 03:43:24;;;;;;;7.30;6.40;;;;;;;19.66;70.92;100319.45;105504;1278;25268;-70
2022/08/02 03:45:56;;;;;;;7.20;5.70;;;;;;;19.64;70.93;100319.89;105495;1279;22540;-72
2022/08/02 03:48:26;;;;;;;6.10;5.40;;;;;;;19.64;71.16;100326.52;105646;1278;23060;-71
2022/08/02 03:51:01;;;;;;;7.30;5.90;;;;;;;19.64;70.92;100327.94;105548;1277;22538;-71
2022/08/02 03:53:28;;;;;;;7.60;6.00;;;;;;;19.63;70.95;100330.13;105381;1273;22550;-70
2022/08/02 03:55:56;;;;;;;9.00;6.20;;;;;;;19.60;71.04;100336.33;105839;1273;22534;-70
2022/08/02 03:58:24;;;;;;;8.90;6.60;;;;;;;19.61;70.99;100342.34;105693;1273;22553;-70
2022/08/02 04:00:54;;;;;;;6.10;5.40;;;;;;;19.61;70.88;100344.35;105910;1273;24226;-70
2022/08/02 04:03:22;;;;;;;8.20;6.00;;;;;;;19.61;70.93;100344.52;105944;1273;23307;-70
2022/08/02 04:05:49;;;;;;;6.50;5.50;;;;;;;19.61;70.84;100350.23;105717;1273;22523;-70
2022/08/02 04:08:31;;;;;;;7.30;4.70;;;;;;;19.60;70.83;100354.40;105435;1277;24418;-69
2022/08/02 04:13:51;;;;;;;7.70;5.60;;;;;;;19.61;70.68;100358.45;104978;1284;22565;-73
2022/08/02 04:16:36;;;;;;;8.10;5.80;;;;;;;19.64;70.56;100363.84;104679;1287;25416;-74
2022/08/02 04:19:07;;;;;;;7.70;5.40;;;;;;;19.64;70.32;100360.28;104737;1287;23999;-74
2022/08/02 04:22:18;;;;;;;9.10;5.90;;;;;;;19.63;70.42;100358.34;105072;1293;23135;-77
2022/08/02 04:24:50;;;;;;;8.20;6.10;;;;;;;19.64;70.04;100361.16;104914;1290;24388;-72
2022/08/02 04:27:20;;;;;;;6.30;5.60;;;;;;;19.61;70.02;100360.77;104334;1295;25718;-73
2022/08/02 04:30:09;;;;;;;7.40;6.10;;;;;;;19.56;69.99;100365.82;104347;1296;22500;-73
2022/08/02 04:32:37;;;;;;;6.30;5.40;;;;;;;19.58;70.01;100364.50;104939;1295;22899;-72
2022/08/02 04:35:05;;;;;;;7.70;6.00;;;;;;;19.60;69.93;100369.39;105028;1285;22555;-73
2022/08/02 04:37:48;;;;;;;7.30;5.70;;;;;;;19.63;69.97;100371.40;105465;1284;22551;-73
2022/08/02 04:40:35;;;;;;;8.20;5.80;;;;;;;19.64;69.70;100375.80;106125;1281;22612;-74
2022/08/02 04:43:02;;;;;;;8.60;6.40;;;;;;;19.65;69.71;100376.13;106645;1280;24701;-74
2022/08/02 04:45:30;;;;;;;6.50;5.90;;;;;;;19.64;69.46;100378.48;105827;1273;23288;-76
2022/08/02 04:47:57;;;;;;;6.00;5.40;;;;;;;19.64;69.42;100382.60;106203;1273;24208;-77
2022/08/02 04:50:33;;;;;;;9.80;6.80;;;;;;;19.65;69.48;100386.85;106007;1273;25545;-77
2022/08/02 04:53:00;;;;;;;10.40;6.00;;;;;;;19.62;69.29;100386.61;105976;1273;22541;-76
2022/08/02 04:55:28;;;;;;;9.90;6.30;;;;;;;19.64;69.29;100396.52;105933;1274;24306;-75
2022/08/02 04:57:57;;;;;;;6.80;5.80;;;;;;;19.66;69.16;100397.48;105744;1273;22588;-75
2022/08/02 05:00:27;;;;;;;9.40;6.30;;;;;;;19.69;69.15;100400.42;106126;1273;24716;-78
2022/08/02 05:02:58;;;;;;;10.00;5.80;;;;;;;19.72;69.14;100401.18;106018;1273;22529;-78
2022/08/02 05:05:25;;;;;;;8.30;6.20;;;;;;;19.76;69.10;100405.09;106098;1273;25324;-79
2022/08/02 05:07:52;;;;;;;12.50;6.10;;;;;;;19.80;68.96;100404.89;106170;1273;25469;-79
2022/08/02 05:10:20;;;;;;;10.90;6.60;;;;;;;19.84;68.67;100403.64;106683;1273;22548;-78
2022/08/02 05:12:48;;;;;;;10.30;6.30;;;;;;;19.86;68.51;100410.36;106703;1273;25375;-78
2022/08/02 05:15:17;;;;;;;7.30;6.20;;;;;;;19.87;68.44;100410.81;107052;1273;22542;-76
2022/08/02 05:17:46;;;;;;;16.50;7.10;;;;;;;19.88;68.32;100416.30;107111;1273;25487;-78
2022/08/02 05:20:15;;;;;;;7.60;5.80;;;;;;;19.88;68.03;100419.20;107339;1273;22595;-82
2022/08/02 05:22:43;;;;;;;8.30;4.70;;;;;;;19.85;67.64;100421.99;107845;1273;23786;-79
2022/08/02 05:25:11;;;;;;;7.40;5.30;;;;;;;19.86;67.18;100427.48;108375;1273;22547;-79
2022/08/02 05:27:38;;;;;;;12.60;5.10;;;;;;;19.91;67.03;100430.45;108039;1273;22539;-79
2022/08/02 05:30:06;;;;;;;10.30;4.80;;;;;;;19.98;66.68;100427.80;107649;1273;22487;-78
2022/08/02 05:32:33;;;;;;;8.60;6.00;;;;;;;20.06;66.37;100431.20;106972;1273;25362;-77
2022/08/02 05:35:01;;;;;;;7.30;5.80;;;;;;;20.11;66.31;100428.45;106236;1273;22632;-79
2022/08/02 05:37:28;;;;;;;14.30;5.30;;;;;;;20.21;66.15;100434.97;106060;1273;24222;-80
2022/08/02 05:39:58;;;;;;;5.40;4.60;;;;;;;20.26;65.65;100433.64;106080;1273;24354;-83
2022/08/02 05:42:31;;;;;;;9.20;4.50;;;;;;;20.32;65.06;100433.20;106030;1273;23982;-81
2022/08/02 05:44:59;;;;;;;7.00;5.00;;;;;;;20.44;64.65;100438.85;106000;1273;24237;-80
2022/08/02 05:47:26;;;;;;;6.20;4.00;;;;;;;20.50;64.32;100439.80;105806;1276;22575;-80
2022/08/02 05:49:53;;;;;;;8.90;4.30;;;;;;;20.56;64.18;100441.84;105844;1276;24295;-83
2022/08/02 05:52:25;;;;;;;7.10;4.60;;;;;;;20.63;63.77;100443.63;105826;1276;23072;-84
2022/08/02 05:55:13;;;;;;;13.60;4.10;;;;;;;20.70;63.64;100442.92;105773;1276;25411;-80
2022/08/02 05:58:10;;;;;;;5.50;3.80;;;;;;;20.78;63.53;100443.96;105810;1276;24202;-81
2022/08/02 06:00:40;;;;;;;6.70;3.80;;;;;;;20.84;62.87;100444.95;105659;1276;25633;-82
2022/08/02 06:03:30;;;;;;;5.50;3.60;;;;;;;20.87;62.38;100447.27;105685;1276;25256;-79
2022/08/02 06:06:13;;;;;;;10.20;6.80;;;;;;;20.90;62.03;100452.63;105958;1273;22859;-77
2022/08/02 06:08:42;;;;;;;6.40;3.80;;;;;;;20.93;61.87;100452.36;105960;1273;25369;-76
2022/08/02 06:11:21;;;;;;;7.00;3.10;;;;;;;20.94;61.18;100451.08;105913;1273;25206;-76
2022/08/02 06:13:48;;;;;;;5.40;3.10;;;;;;;20.94;60.67;100456.45;106113;1273;23081;-78
2022/08/02 06:16:15;;;;;;;7.80;3.50;;;;;;;20.94;60.23;100456.64;106019;1273;23948;-76
2022/08/02 06:18:59;;;;;;;10.10;3.00;;;;;;;20.95;59.89;100454.04;106024;1273;25402;-74
2022/08/02 06:21:26;;;;;;;4.70;2.80;;;;;;;20.97;59.74;100453.77;106181;1273;23164;-78
2022/08/02 06:24:18;;;;;;;7.80;2.90;;;;;;;20.98;59.44;100444.77;105856;1273;24307;-75
2022/08/02 06:26:51;;;;;;;2.70;2.40;;;;;;;21.06;59.36;100452.77;106115;1273;22541;-75
2022/08/02 06:29:20;;;;;;;6.60;2.90;;;;;;;21.09;58.98;100455.67;106006;1273;22694;-75
2022/08/02 06:31:52;;;;;;;3.90;2.40;;;;;;;21.13;58.66;100458.70;106083;1273;23930;-75
2022/08/02 06:34:19;;;;;;;13.50;4.30;;;;;;;21.16;58.85;100461.55;106044;1273;22741;-75
2022/08/02 06:36:54;;;;;;;8.90;2.70;;;;;;;21.22;58.67;100460.52;105888;1273;25896;-74
2022/08/02 06:39:38;;;;;;;5.50;2.50;;;;;;;21.29;58.06;100459.11;105952;1273;22775;-90
2022/08/02 06:42:11;;;;;;;6.80;2.50;;;;;;;21.36;57.62;100462.15;105624;1273;299003;-76
2022/08/02 06:44:43;;;;;;;15.60;3.60;;;;;;;21.43;57.70;100463.04;106183;1273;22608;-75
2022/08/02 06:47:18;;;;;;;;;;;;;;;21.50;57.30;100466.94;106003;1273;25358;-76
2022/08/02 06:49:45;;;;;;;8.20;2.70;;;;;;;21.57;57.01;100468.03;106094;1273;25232;-74
2022/08/02 06:52:25;;;;;;;29.80;5.10;;;;;;;21.64;56.97;100469.25;106062;1273;22535;-78
2022/08/02 06:55:00;;;;;;;43.20;6.90;;;;;;;21.72;56.65;100472.23;106132;1273;25449;-76
2022/08/02 06:57:29;;;;;;;11.20;2.60;;;;;;;21.80;56.15;100470.58;106157;1273;22869;-78
2022/08/02 06:59:57;;;;;;;8.00;2.40;;;;;;;21.86;56.03;100471.51;106016;1275;22536;-77
2022/08/02 07:02:24;;;;;;;6.50;2.50;;;;;;;21.90;56.29;100476.27;106022;1274;25364;-79
2022/08/02 07:04:51;;;;;;;5.10;1.90;;;;;;;21.93;55.74;100477.58;105925;1274;23943;-78
2022/08/02 07:07:18;;;;;;;5.50;2.10;;;;;;;21.94;55.51;100474.43;105942;1274;23068;-76
2022/08/02 07:09:45;;;;;;;2.60;1.70;;;;;;;21.98;55.06;100483.20;106148;1274;23606;-76
2022/08/02 07:12:31;;;;;;;2.70;1.70;;;;;;;21.98;54.66;100475.47;106138;1274;22614;-76
2022/08/02 07:15:00;;;;;;;5.00;2.00;;;;;;;22.03;54.48;100474.69;105986;1275;25362;-78
2022/08/02 07:17:27;;;;;;;3.70;1.50;;;;;;;22.08;53.79;100474.77;105974;1274;23119;-75
2022/08/02 07:19:55;;;;;;;25.90;5.60;;;;;;;22.14;53.80;100480.16;105815;1274;25302;-76
2022/08/02 07:22:23;;;;;;;3.90;1.60;;;;;;;22.20;53.60;100482.52;105732;1279;22577;-80
2022/08/02 07:24:50;;;;;;;7.30;2.60;;;;;;;22.25;53.54;100488.72;105657;1279;22926;-74
2022/08/02 07:27:18;;;;;;;6.40;2.20;;;;;;;22.28;53.55;100486.93;105640;1279;25005;-74
2022/08/02 07:29:45;;;;;;;1.50;1.30;;;;;;;22.30;53.16;100483.20;105601;1279;22668;-75
2022/08/02 07:32:22;;;;;;;1.30;1.20;;;;;;;22.33;52.77;100480.70;105581;1279;23014;-76
2022/08/02 07:34:49;;;;;;;3.20;1.60;;;;;;;22.37;52.43;100483.89;105687;1279;23015;-77
2022/08/02 07:37:28;;;;;;;3.20;1.60;;;;;;;22.41;52.41;100480.27;105619;1279;24247;-79
2022/08/02 07:40:16;;;;;;;2.70;1.60;;;;;;;22.46;52.43;100479.80;106342;1274;22540;-76
2022/08/02 07:42:51;;;;;;;4.40;1.50;;;;;;;22.50;52.07;100479.92;107758;1274;23065;-77
2022/08/02 07:45:24;;;;;;;5.40;1.50;;;;;;;22.58;51.80;100478.75;106394;1274;22720;-77
2022/08/02 07:47:51;;;;;;;3.30;1.50;;;;;;;22.66;52.04;100478.36;107462;1274;23830;-73
2022/08/02 07:50:21;;;;;;;3.90;1.30;;;;;;;22.72;51.39;100478.86;108915;1274;22556;-73
2022/08/02 07:52:48;;;;;;;2.40;1.60;;;;;;;22.79;51.16;100478.09;107152;1279;22572;-74
2022/08/02 07:55:22;;;;;;;6.40;1.50;;;;;;;22.86;51.01;100474.80;105796;1278;25359;-74
2022/08/02 07:58:04;;;;;;;1.80;1.60;;;;;;;22.92;51.09;100467.67;105424;1279;24282;-76
2022/08/02 08:00:43;;;;;;;3.00;1.50;;;;;;;23.04;50.87;100475.22;105620;1279;25438;-73
2022/08/02 08:03:11;;;;;;;6.10;1.40;;;;;;;23.11;50.25;100477.85;105563;1277;25304;-73
2022/08/02 08:05:38;;;;;;;22.30;3.30;;;;;;;23.19;50.40;100477.16;105550;1279;24760;-73
2022/08/02 08:08:05;;;;;;;6.50;2.20;;;;;;;23.30;50.88;100477.94;105496;1279;22572;-75
2022/08/02 08:10:33;;;;;;;2.60;1.60;;;;;;;23.41;50.70;100480.71;105778;1274;24203;-74
2022/08/02 08:13:00;;;;;;;1.90;1.60;;;;;;;23.49;49.94;100483.08;105771;1274;23927;-74
2022/08/02 08:15:26;;;;;;;2.70;1.30;;;;;;;23.59;49.45;100484.88;105962;1275;22551;-74
2022/08/02 08:17:53;;;;;;;3.60;1.80;;;;;;;23.69;49.78;100484.05;106092;1274;22620;-75
2022/08/02 08:20:20;;;;;;;2.50;1.50;;;;;;;23.79;49.41;100482.88;105793;1274;22561;-74
2022/08/02 08:22:48;;;;;;;1.80;1.50;;;;;;;23.89;48.94;100480.98;105863;1275;22544;-73
2022/08/02 08:25:15;;;;;;;6.50;1.30;;;;;;;24.00;48.84;100483.01;105781;1276;25339;-73
2022/08/02 08:27:51;;;;;;;4.30;1.90;;;;;;;24.13;49.01;100480.20;105820;1276;23913;-78
2022/08/02 08:30:19;;;;;;;3.50;1.70;;;;;;;24.25;48.76;100477.83;105559;1278;25349;-73
2022/08/02 08:32:48;;;;;;;6.80;3.70;;;;;;;24.40;48.86;100482.27;105597;1281;22545;-71
2022/08/02 08:35:15;;;;;;;4.80;2.00;;;;;;;24.53;47.95;100480.85;105445;1279;25346;-71
2022/08/02 08:37:42;;;;;;;3.60;1.70;;;;;;;24.59;47.48;100478.65;105431;1279;24078;-75
2022/08/02 08:40:10;;;;;;;2.30;1.90;;;;;;;24.71;47.70;100481.66;105506;1279;22528;-72
2022/08/02 08:42:38;;;;;;;3.30;1.70;;;;;;;24.84;47.71;100482.24;105444;1279;24431;-72
2022/08/02 08:45:06;;;;;;;4.50;1.80;;;;;;;24.98;47.42;100478.94;105626;1279;24337;-73
2022/08/02 08:47:39;;;;;;;3.00;1.90;;;;;;;25.12;47.67;100483.04;104865;1284;23029;-73
2022/08/02 08:50:11;;;;;;;2.60;2.00;;;;;;;25.26;47.61;100484.09;105481;1281;25326;-74
2022/08/02 08:52:52;;;;;;;27.50;4.50;;;;;;;25.38;47.24;100484.52;105450;1281;25349;-72
2022/08/02 08:55:23;;;;;;;16.30;2.60;;;;;;;25.47;46.61;100492.17;105591;1281;25611;-73
2022/08/02 08:57:53;;;;;;;4.80;1.80;;;;;;;25.56;45.96;100491.92;105610;1281;22745;-74
2022/08/02 09:00:20;;;;;;;3.50;2.00;;;;;;;25.65;45.45;100492.74;105580;1280;26497;-75
2022/08/02 09:02:46;;;;;;;4.30;2.00;;;;;;;25.75;45.48;100492.04;105304;1281;22525;-73
2022/08/02 09:05:16;;;;;;;2.20;1.50;;;;;;;25.81;44.90;100492.86;105590;1276;22557;-79
2022/08/02 09:07:51;;;;;;;4.00;1.90;;;;;;;25.93;44.97;100489.73;106027;1276;25368;-75
2022/08/02 09:10:34;;;;;;;2.10;1.90;;;;;;;25.98;44.52;100488.78;106041;1275;22535;-75
2022/08/02 09:13:23;;;;;;;3.90;1.60;;;;;;;26.06;44.70;100487.33;106277;1276;22564;-78
2022/08/02 09:16:10;;;;;;;4.30;1.70;;;;;;;26.17;44.69;100491.36;106520;1274;22578;-76
2022/08/02 09:18:44;;;;;;;5.30;2.00;;;;;;;26.32;45.20;100489.23;106330;1281;25385;-76
2022/08/02 09:21:15;;;;;;;2.40;1.90;;;;;;;26.43;44.25;100492.17;106340;1279;25530;-79
2022/08/02 09:23:46;;;;;;;2.10;1.60;;;;;;;26.53;44.06;100494.02;106604;1279;24090;-78
2022/08/02 09:26:22;;;;;;;6.90;1.90;;;;;;;26.63;43.60;100495.45;106523;1281;22572;-72
2022/08/02 09:33:02;;;;;;;2.70;1.50;;;;;;;26.86;43.26;100501.34;105649;1279;24245;-76
2022/08/02 09:35:37;;;;;;;1.70;1.60;;;;;;;26.90;42.33;100504.27;105636;1279;22696;-75
2022/08/02 09:38:23;;;;;;;9.40;1.70;;;;;;;26.84;42.23;100500.91;106051;1274;22764;-76
2022/08/02 09:40:52;;;;;;;6.80;1.90;;;;;;;26.98;42.76;100499.30;106101;1274;24439;-75
2022/08/02 09:43:20;;;;;;;4.10;1.90;;;;;;;27.14;42.88;100498.46;105983;1274;23204;-78
2022/08/02 09:45:47;;;;;;;3.20;2.10;;;;;;;27.31;42.59;100497.38;105759;1276;22544;-76
2022/08/02 09:48:14;;;;;;;4.30;1.80;;;;;;;27.45;42.53;100501.84;105991;1275;22531;-74
2022/08/02 09:50:41;;;;;;;4.40;1.70;;;;;;;27.65;42.66;100503.39;106059;1274;22533;-75
2022/08/02 09:53:12;;;;;;;4.20;1.70;;;;;;;27.83;42.18;100504.02;106213;1275;24065;-78
2022/08/02 09:55:41;;;;;;;4.50;2.00;;;;;;;27.85;41.73;100501.15;105871;1275;24392;-76
2022/08/02 09:58:18;;;;;;;3.10;2.00;;;;;;;27.88;41.37;100502.29;106082;1275;25329;-75
2022/08/02 10:00:53;;;;;;;3.20;1.90;;;;;;;27.92;41.29;100500.20;105880;1276;25419;-74
2022/08/02 10:03:20;;;;;;;2.60;1.80;;;;;;;27.90;41.46;100503.79;105969;1276;24391;-75
2022/08/02 10:05:54;;;;;;;5.10;2.00;;;;;;;27.76;41.73;100502.23;105901;1275;25326;-76
2022/08/02 10:08:30;;;;;;;3.50;2.10;;;;;;;27.67;41.90;100508.84;105942;1274;22582;-76
2022/08/02 10:11:00;;;;;;;3.20;2.10;;;;;;;27.59;41.75;100503.90;105708;1279;25397;-75
2022/08/02 10:13:34;;;;;;;3.10;1.40;;;;;;;27.71;41.79;100502.95;105772;1279;22675;-75
2022/08/02 10:16:03;;;;;;;5.40;2.00;;;;;;;27.88;42.06;100496.69;105769;1279;25609;-75
2022/08/02 10:18:29;;;;;;;2.10;1.60;;;;;;;28.10;41.60;100494.01;105551;1279;25288;-76
2022/08/02 10:21:12;;;;;;;3.70;2.10;;;;;;;28.07;40.63;100499.15;105672;1279;22724;-74
2022/08/02 10:23:43;;;;;;;3.50;1.80;;;;;;;28.03;40.91;100496.77;105665;1279;22540;-77
2022/08/02 10:26:14;;;;;;;3.80;1.90;;;;;;;28.26;41.51;100494.23;105639;1278;24777;-76
2022/08/02 10:28:43;;;;;;;3.50;2.00;;;;;;;28.56;41.92;100495.57;105779;1276;25939;-84
2022/08/02 10:31:14;;;;;;;3.80;2.00;;;;;;;28.81;41.92;100497.29;106168;1274;24356;-77
2022/08/02 10:33:43;;;;;;;7.70;2.20;;;;;;;28.97;41.31;100500.09;106038;1274;22622;-75
2022/08/02 10:36:17;;;;;;;2.70;1.90;;;;;;;29.26;41.03;100495.17;106044;1274;25250;-77
2022/08/02 10:38:45;;;;;;;2.00;1.60;;;;;;;29.44;40.27;100500.05;106039;1275;22557;-76
2022/08/02 10:41:12;;;;;;;3.80;1.70;;;;;;;29.60;40.34;100499.13;106094;1275;24303;-76
2022/08/02 10:43:43;;;;;;;4.20;1.70;;;;;;;29.85;40.35;100500.67;106053;1276;22623;-77
2022/08/02 10:46:24;;;;;;;2.10;1.90;;;;;;;30.12;39.63;100500.53;105928;1275;25842;-77
2022/08/02 10:49:11;;;;;;;2.90;1.90;;;;;;;30.28;39.01;100502.73;106157;1275;25238;-75
2022/08/02 10:52:01;;;;;;;4.40;2.30;;;;;;;30.33;38.79;100504.24;107808;1274;22540;-75
2022/08/02 10:54:36;;;;;;;4.10;2.10;;;;;;;30.44;38.53;100500.23;107856;1274;22554;-76
2022/08/02 10:57:19;;;;;;;25.40;3.70;;;;;;;30.33;38.20;100499.00;107268;1274;26520;-75
2022/08/02 10:59:48;;;;;;;14.30;3.00;;;;;;;30.17;37.96;100494.04;108252;1274;25251;-77
2022/08/02 11:02:32;;;;;;;4.10;2.00;;;;;;;30.06;38.27;100492.17;107369;1275;22534;-75
2022/08/02 11:05:01;;;;;;;5.90;2.10;;;;;;;29.85;37.94;100496.70;106759;1273;25258;-79
2022/08/02 11:07:42;;;;;;;8.40;2.40;;;;;;;29.55;38.46;100500.97;106208;1274;26522;-77
2022/08/02 11:10:34;;;;;;;7.00;1.90;;;;;;;29.30;38.57;100499.66;106150;1274;24326;-77
2022/08/02 11:13:01;;;;;;;11.80;2.30;;;;;;;29.15;39.04;100495.34;106073;1274;22526;-79
2022/08/02 11:15:29;;;;;;;2.90;2.00;;;;;;;29.37;38.60;100495.40;106116;1274;22530;-77
2022/08/02 11:18:00;;;;;;;3.60;2.00;;;;;;;29.57;39.02;100491.70;106113;1274;25910;-76
2022/08/02 11:20:27;;;;;;;4.70;2.20;;;;;;;29.80;39.07;100494.10;105988;1274;22974;-76
2022/08/02 11:22:55;;;;;;;2.20;2.00;;;;;;;29.92;38.17;100493.25;105945;1275;25358;-76
2022/08/02 11:25:22;;;;;;;3.70;2.00;;;;;;;29.90;37.38;100494.11;106039;1275;26523;-76
2022/08/02 11:27:57;;;;;;;2.30;2.10;;;;;;;29.72;36.97;100493.52;106107;1274;23415;-74
2022/08/02 11:30:26;;;;;;;2.50;2.10;;;;;;;29.64;37.33;100491.29;106136;1274;24230;-78
2022/08/02 11:32:57;;;;;;;2.40;1.90;;;;;;;29.75;37.60;100493.42;106274;1275;23224;-75
2022/08/02 11:35:40;;;;;;;2.50;2.30;;;;;;;29.81;37.39;100491.12;106132;1273;25436;-78
2022/08/02 11:38:16;;;;;;;5.20;1.70;;;;;;;29.84;37.79;100497.41;106146;1275;24370;-77
2022/08/02 11:40:44;;;;;;;5.20;2.00;;;;;;;29.62;37.38;100498.59;106241;1274;22531;-77
2022/08/02 11:43:20;;;;;;;4.50;2.00;;;;;;;29.44;37.62;100499.18;106069;1274;23968;-77
2022/08/02 11:45:49;;;;;;;7.50;2.20;;;;;;;29.20;37.84;100501.48;106126;1275;24232;-86
2022/08/02 11:48:38;;;;;;;15.60;3.60;;;;;;;29.10;38.32;100503.43;106128;1274;25355;-77
2022/08/02 11:51:10;;;;;;;4.50;2.10;;;;;;;28.99;38.59;100507.90;106098;1275;25465;-80